Time;durP1;ratioP1;P1;durP2;ratioP2;P2;SDS_P1;SDS_P2;PMS_P1;PMS_P2;Temp;Humidity;BMP_temperature;BMP_pressure;BME280_temperature;BME280_humidity;BME280_pressure;Samples;Min_cycle;Max_cycle;Signal;HPM_P1;HPM_P2
2021/09/23 00:01:46;;;;;;;18.45;10.07;;;11.30;99.90;;;;;;5071089;28;20490;-53
2021/09/23 00:07:07;;;;;;;18.95;10.30;;;11.30;99.90;;;;;;5069702;28;20874;-54
2021/09/23 00:09:33;;;;;;;15.80;9.73;;;11.20;99.90;;;;;;5070545;28;20380;-55
2021/09/23 00:11:59;;;;;;;16.75;10.20;;;11.30;99.90;;;;;;5070886;28;20419;-55
2021/09/23 00:14:25;;;;;;;16.90;9.82;;;11.20;99.90;;;;;;5070137;28;20470;-55
2021/09/23 00:16:51;;;;;;;15.80;8.85;;;11.00;99.90;;;;;;5070587;28;20851;-54
2021/09/23 00:19:17;;;;;;;16.58;9.90;;;10.90;99.90;;;;;;5070313;28;20419;-55
2021/09/23 00:21:43;;;;;;;15.50;9.60;;;10.90;99.90;;;;;;5070894;28;20447;-54
2021/09/23 00:24:08;;;;;;;17.50;10.73;;;10.80;99.90;;;;;;5069880;28;20416;-54
2021/09/23 00:26:34;;;;;;;17.90;10.77;;;10.80;99.90;;;;;;5070579;28;20391;-55
2021/09/23 00:29:02;;;;;;;19.27;11.30;;;11.90;99.90;;;;;;5070625;28;20459;-55
2021/09/23 00:31:28;;;;;;;21.80;11.02;;;10.60;99.90;;;;;;5070238;28;21001;-55
2021/09/23 00:33:53;;;;;;;18.93;11.87;;;10.70;99.90;;;;;;5069469;28;20421;-54
2021/09/23 00:36:19;;;;;;;17.77;10.90;;;10.60;99.90;;;;;;5069681;28;20380;-54
2021/09/23 00:38:44;;;;;;;21.70;11.07;;;10.60;99.90;;;;;;5069296;28;20405;-54
2021/09/23 00:41:10;;;;;;;18.43;11.80;;;10.70;99.90;;;;;;5069845;28;20895;-55
2021/09/23 00:43:36;;;;;;;19.60;11.20;;;10.60;99.90;;;;;;5070332;28;20857;-54
2021/09/23 00:46:02;;;;;;;19.33;11.13;;;10.70;99.90;;;;;;5070360;28;20838;-54
2021/09/23 00:48:27;;;;;;;19.77;11.30;;;10.60;99.90;;;;;;5069686;28;20526;-54
2021/09/23 00:50:53;;;;;;;20.92;11.57;;;10.50;99.90;;;;;;5069550;28;20865;-55
2021/09/23 00:53:19;;;;;;;21.42;11.30;;;10.50;99.90;;;;;;5068361;28;20368;-55
2021/09/23 00:55:47;;;;;;;20.30;11.43;;;10.50;99.90;;;;;;5070154;28;20412;-54
2021/09/23 00:58:13;;;;;;;23.65;12.00;;;10.50;99.90;;;;;;5069518;28;20390;-55
2021/09/23 01:00:38;;;;;;;20.60;11.33;;;10.60;99.90;;;;;;5069850;28;20828;-55
2021/09/23 01:03:04;;;;;;;25.05;13.00;;;10.50;99.90;;;;;;5070007;28;20383;-55
2021/09/23 01:05:30;;;;;;;20.20;11.77;;;10.60;99.90;;;;;;5069273;28;21134;-54
2021/09/23 01:07:55;;;;;;;18.83;10.85;;;10.60;99.90;;;;;;5070383;28;20468;-55
2021/09/23 01:10:21;;;;;;;22.33;11.60;;;10.60;99.90;;;;;;5069069;28;20391;-55
2021/09/23 01:12:47;;;;;;;18.35;11.43;;;10.60;99.90;;;;;;5070044;28;20454;-55
2021/09/23 01:15:18;;;;;;;17.75;11.82;;;10.60;99.90;;;;;;5068872;28;20502;-55
2021/09/23 01:17:44;;;;;;;19.30;11.27;;;10.50;99.90;;;;;;5069631;28;20402;-55
2021/09/23 01:20:11;;;;;;;19.33;11.27;;;10.50;99.90;;;;;;5069401;28;20421;-55
2021/09/23 01:22:37;;;;;;;22.60;11.40;;;10.50;99.90;;;;;;5068501;28;20775;-54
2021/09/23 01:25:05;;;;;;;17.35;10.85;;;10.40;99.90;;;;;;5069736;28;20424;-55
2021/09/23 01:27:30;;;;;;;18.60;10.88;;;10.40;99.90;;;;;;5069146;28;20477;-55
2021/09/23 01:29:56;;;;;;;18.20;10.95;;;10.30;99.90;;;;;;5069573;28;20542;-55
2021/09/23 01:32:22;;;;;;;20.83;11.87;;;10.30;99.90;;;;;;5068861;28;20736;-55
2021/09/23 01:34:47;;;;;;;20.20;12.23;;;10.10;99.90;;;;;;5069817;28;20384;-55
2021/09/23 01:37:13;;;;;;;19.27;11.30;;;10.10;99.90;;;;;;5068752;28;20380;-55
2021/09/23 01:39:39;;;;;;;19.33;11.07;;;10.10;99.90;;;;;;5069713;28;20375;-55
2021/09/23 01:42:05;;;;;;;24.43;11.03;;;10.10;99.90;;;;;;5069663;28;20407;-55
2021/09/23 01:44:32;;;;;;;21.20;11.77;;;10.20;99.90;;;;;;5068529;28;20380;-55
2021/09/23 01:46:58;;;;;;;20.48;10.98;;;10.10;99.90;;;;;;5069348;28;20380;-55
2021/09/23 01:49:23;;;;;;;19.97;10.87;;;10.10;99.90;;;;;;5068935;28;20509;-55
2021/09/23 01:51:49;;;;;;;18.52;10.98;;;10.00;99.90;;;;;;5069128;28;20391;-55
2021/09/23 01:54:15;;;;;;;20.38;10.52;;;9.90;99.90;;;;;;5068520;28;20387;-55
2021/09/23 01:56:41;;;;;;;18.83;10.70;;;9.90;99.90;;;;;;5069450;28;20433;-55
2021/09/23 01:59:07;;;;;;;20.50;10.90;;;9.90;99.90;;;;;;5069541;28;20527;-55
2021/09/23 02:01:32;;;;;;;21.45;11.40;;;9.80;99.90;;;;;;5068384;28;20482;-55
2021/09/23 02:03:59;;;;;;;18.53;10.70;;;9.90;99.90;;;;;;5075363;28;20517;-55
2021/09/23 02:06:25;;;;;;;16.08;10.60;;;9.90;99.90;;;;;;5075356;28;20892;-55
2021/09/23 02:08:51;;;;;;;19.30;10.70;;;9.90;99.90;;;;;;5075787;28;20372;-55
2021/09/23 02:11:18;;;;;;;17.40;9.90;;;10.00;99.90;;;;;;5075344;28;20418;-55
2021/09/23 02:13:45;;;;;;;18.00;9.88;;;9.80;99.90;;;;;;5076069;28;20383;-55
2021/09/23 02:16:11;;;;;;;17.92;10.30;;;9.60;99.90;;;;;;5075710;28;20380;-55
2021/09/23 02:18:36;;;;;;;19.92;9.77;;;9.50;99.90;;;;;;5076036;28;20461;-55
2021/09/23 02:21:02;;;;;;;16.73;9.53;;;9.40;99.90;;;;;;5075886;28;20464;-55
2021/09/23 02:23:28;;;;;;;17.17;9.68;;;9.40;99.90;;;;;;5075173;28;20387;-55
2021/09/23 02:25:53;;;;;;;17.73;10.77;;;9.40;99.90;;;;;;5075989;28;20441;-55
2021/09/23 02:28:19;;;;;;;17.20;10.30;;;9.50;99.90;;;;;;5075145;28;20371;-55
2021/09/23 02:30:44;;;;;;;18.85;10.05;;;9.50;99.90;;;;;;5075601;28;20865;-55
2021/09/23 02:33:10;;;;;;;16.60;8.97;;;9.60;99.90;;;;;;5075134;28;20760;-55
2021/09/23 02:35:37;;;;;;;17.75;9.93;;;9.50;99.90;;;;;;5075527;28;20390;-55
2021/09/23 02:38:03;;;;;;;20.38;11.00;;;9.60;99.90;;;;;;5075644;28;20872;-55
2021/09/23 02:40:29;;;;;;;16.10;10.10;;;9.60;99.90;;;;;;5074826;28;20407;-55
2021/09/23 02:42:54;;;;;;;16.55;9.77;;;9.60;99.90;;;;;;5075639;28;20975;-55
2021/09/23 02:45:20;;;;;;;16.90;9.60;;;9.50;99.90;;;;;;5074954;28;20383;-55
2021/09/23 02:47:47;;;;;;;16.10;9.27;;;9.50;99.90;;;;;;5075516;28;20917;-55
2021/09/23 02:50:13;;;;;;;15.13;9.60;;;9.50;99.90;;;;;;5074820;28;20445;-55
2021/09/23 02:52:38;;;;;;;15.63;9.50;;;9.40;99.90;;;;;;5075886;28;20372;-55
2021/09/23 02:55:05;;;;;;;16.67;9.30;;;9.40;99.90;;;;;;5075366;28;20429;-55
2021/09/23 02:57:31;;;;;;;17.70;9.87;;;9.40;99.90;;;;;;5074623;28;20458;-55
2021/09/23 02:59:58;;;;;;;20.63;10.98;;;9.40;99.90;;;;;;5075397;28;20809;-55
2021/09/23 03:02:23;;;;;;;18.27;10.50;;;9.50;99.90;;;;;;5074025;28;20888;-55
2021/09/23 03:04:49;;;;;;;18.60;9.47;;;9.60;99.90;;;;;;5075486;28;20462;-55
2021/09/23 03:07:15;;;;;;;14.90;9.20;;;9.50;99.90;;;;;;5074546;28;20375;-56
2021/09/23 03:09:40;;;;;;;19.50;9.50;;;9.60;99.90;;;;;;5075539;28;20384;-55
2021/09/23 03:12:06;;;;;;;17.73;9.68;;;9.50;99.90;;;;;;5075702;28;20861;-55
2021/09/23 03:14:32;;;;;;;16.67;9.60;;;9.40;99.90;;;;;;5072248;28;20383;-55
2021/09/23 03:16:57;;;;;;;19.25;10.10;;;7.60;99.90;;;;;;5071890;28;20403;-55
2021/09/23 03:19:23;;;;;;;18.27;9.27;;;9.40;99.90;;;;;;5071388;28;20877;-55
2021/09/23 03:21:49;;;;;;;16.33;9.35;;;9.40;99.90;;;;;;5072256;28;20404;-55
2021/09/23 03:24:14;;;;;;;19.00;9.10;;;9.40;99.90;;;;;;5071260;28;20514;-55
2021/09/23 03:26:40;;;;;;;15.97;9.40;;;9.40;99.90;;;;;;5072047;28;20388;-55
2021/09/23 03:29:08;;;;;;;18.35;9.98;;;9.30;99.90;;;;;;5071810;28;20399;-55
2021/09/23 03:31:35;;;;;;;16.35;9.80;;;9.20;99.90;;;;;;5070784;28;20410;-55
2021/09/23 03:34:01;;;;;;;16.67;9.60;;;9.10;99.90;;;;;;5071982;28;20388;-55
2021/09/23 03:36:27;;;;;;;18.17;9.55;;;9.10;99.90;;;;;;5071038;28;20707;-55
2021/09/23 03:38:55;;;;;;;20.05;11.07;;;9.10;99.90;;;;;;5070673;28;20432;-55
2021/09/23 03:41:22;;;;;;;19.88;10.27;;;9.20;99.90;;;;;;5070820;28;20511;-55
2021/09/23 03:43:48;;;;;;;18.70;10.68;;;9.30;99.90;;;;;;5071482;28;20861;-55
2021/09/23 03:46:13;;;;;;;18.45;10.60;;;9.40;99.90;;;;;;5071152;28;20422;-55
2021/09/23 03:48:39;;;;;;;17.27;10.37;;;9.40;99.90;;;;;;5071874;28;20414;-55
2021/09/23 03:51:05;;;;;;;17.05;10.23;;;9.30;99.90;;;;;;5070559;28;20391;-55
2021/09/23 03:53:32;;;;;;;16.43;10.23;;;9.30;99.90;;;;;;5070480;28;20502;-55
2021/09/23 03:55:57;;;;;;;16.98;9.98;;;9.30;99.90;;;;;;5065791;28;20586;-55
2021/09/23 03:58:23;;;;;;;16.63;9.85;;;9.30;99.90;;;;;;5062194;28;20466;-55
2021/09/23 04:00:48;;;;;;;16.20;9.80;;;9.20;99.90;;;;;;5060370;28;20884;-55
2021/09/23 04:03:14;;;;;;;16.20;9.15;;;9.30;99.90;;;;;;5070902;28;20419;-55
2021/09/23 04:05:40;;;;;;;16.73;9.50;;;9.30;99.90;;;;;;5070908;28;20449;-54
2021/09/23 04:08:05;;;;;;;15.50;9.32;;;9.30;99.90;;;;;;5056128;28;20398;-54
2021/09/23 04:10:31;;;;;;;16.33;9.70;;;9.30;99.90;;;;;;5058026;28;20391;-54
2021/09/23 04:12:57;;;;;;;17.85;10.10;;;9.30;99.90;;;;;;5054768;28;20408;-55
2021/09/23 04:15:23;;;;;;;19.88;10.90;;;9.30;99.90;;;;;;5057829;28;20403;-55
2021/09/23 04:17:50;;;;;;;18.08;10.85;;;9.20;99.90;;;;;;5055313;28;20507;-55
2021/09/23 04:20:16;;;;;;;20.25;10.68;;;9.10;99.90;;;;;;5067777;28;20419;-55
2021/09/23 04:22:42;;;;;;;22.50;11.25;;;9.10;99.90;;;;;;5066847;28;20391;-55
2021/09/23 04:25:09;;;;;;;18.20;11.48;;;9.10;99.90;;;;;;5056608;28;20769;-54
2021/09/23 04:27:35;;;;;;;17.85;11.18;;;9.20;99.90;;;;;;5048987;28;20816;-55
2021/09/23 04:30:01;;;;;;;20.83;11.90;;;9.20;99.90;;;;;;5052401;28;20893;-54
2021/09/23 04:32:27;;;;;;;21.00;12.20;;;9.30;99.90;;;;;;5056876;28;20375;-55
2021/09/23 04:34:52;;;;;;;23.05;11.50;;;9.30;99.90;;;;;;5056706;28;20474;-55
2021/09/23 04:37:18;;;;;;;20.33;10.73;;;9.40;99.90;;;;;;5050715;28;20398;-55
2021/09/23 04:39:44;;;;;;;22.08;12.27;;;9.40;99.90;;;;;;5062429;28;20414;-55
2021/09/23 04:42:09;;;;;;;17.20;10.30;;;9.40;99.90;;;;;;5050132;28;20451;-55
2021/09/23 04:44:35;;;;;;;19.10;11.57;;;9.40;99.90;;;;;;5048633;28;21248;-55
2021/09/23 04:47:04;;;;;;;19.00;11.10;;;9.50;99.90;;;;;;5049912;28;20803;-55
2021/09/23 04:49:33;;;;;;;21.95;11.25;;;9.50;99.90;;;;;;5049401;28;20393;-55
2021/09/23 04:51:59;;;;;;;18.58;11.20;;;9.50;99.90;;;;;;5061322;28;20869;-55
2021/09/23 04:54:25;;;;;;;24.55;12.13;;;9.50;99.90;;;;;;5053718;28;20484;-55
2021/09/23 04:56:51;;;;;;;21.13;11.18;;;9.40;99.90;;;;;;5052205;28;20477;-55
2021/09/23 04:59:16;;;;;;;19.27;11.30;;;9.40;99.90;;;;;;5051889;28;20391;-56
2021/09/23 05:01:42;;;;;;;20.35;11.82;;;9.40;99.90;;;;;;5061475;28;20408;-55
2021/09/23 05:04:08;;;;;;;21.27;11.77;;;9.50;99.90;;;;;;5064906;28;20383;-56
2021/09/23 05:06:33;;;;;;;19.30;11.50;;;9.50;99.90;;;;;;5070161;28;20647;-56
2021/09/23 05:09:01;;;;;;;18.50;10.83;;;9.50;99.90;;;;;;5071238;28;21092;-56
2021/09/23 05:11:27;;;;;;;15.88;10.05;;;9.50;99.90;;;;;;5071252;28;20726;-56
2021/09/23 05:13:53;;;;;;;17.42;11.10;;;9.50;99.90;;;;;;5070041;28;20384;-56
2021/09/23 05:16:19;;;;;;;18.45;11.18;;;9.40;99.90;;;;;;5062278;28;20385;-56
2021/09/23 05:18:45;;;;;;;18.93;10.80;;;9.40;99.90;;;;;;5056706;28;20733;-56
2021/09/23 05:21:11;;;;;;;18.65;10.02;;;9.20;99.90;;;;;;5055532;28;20832;-56
2021/09/23 05:23:37;;;;;;;17.50;9.95;;;9.20;99.90;;;;;;5055164;28;20455;-55
2021/09/23 05:26:03;;;;;;;15.52;9.90;;;9.20;99.90;;;;;;5058752;28;20745;-55
2021/09/23 05:28:29;;;;;;;16.42;9.93;;;9.20;99.90;;;;;;5066274;28;20395;-55
2021/09/23 05:30:54;;;;;;;19.60;11.40;;;9.20;99.90;;;;;;5053955;28;20796;-56
2021/09/23 05:33:20;;;;;;;21.67;10.68;;;9.30;99.90;;;;;;5048762;28;20411;-56
2021/09/23 05:35:46;;;;;;;29.20;11.30;;;9.40;99.90;;;;;;5049785;28;20448;-55
2021/09/23 05:38:12;;;;;;;17.60;10.38;;;9.40;99.90;;;;;;5050987;28;20404;-56
2021/09/23 05:40:39;;;;;;;18.80;10.82;;;9.60;99.90;;;;;;5063225;28;20409;-55
2021/09/23 05:43:05;;;;;;;18.10;10.77;;;9.60;99.90;;;;;;5054866;28;20389;-55
2021/09/23 05:45:31;;;;;;;20.17;11.17;;;9.70;99.90;;;;;;5056654;28;20399;-56
2021/09/23 05:47:56;;;;;;;17.40;10.15;;;9.80;99.90;;;;;;5049962;28;20403;-56
2021/09/23 05:50:22;;;;;;;20.77;10.83;;;9.90;99.90;;;;;;5050668;28;20402;-55
2021/09/23 05:52:48;;;;;;;17.00;10.10;;;9.90;99.90;;;;;;5056109;28;20873;-55
2021/09/23 05:55:14;;;;;;;19.45;10.93;;;9.90;99.90;;;;;;5068076;28;20540;-55
2021/09/23 05:57:40;;;;;;;18.77;10.82;;;10.10;99.90;;;;;;5070351;28;20418;-55
2021/09/23 06:00:11;;;;;;;17.27;10.10;;;10.40;99.90;;;;;;5061989;28;20390;-54
2021/09/23 06:02:37;;;;;;;16.67;9.15;;;10.60;99.90;;;;;;5064776;28;20476;-54
2021/09/23 06:05:03;;;;;;;17.58;9.23;;;11.20;99.90;;;;;;5064469;28;20391;-54
2021/09/23 06:07:29;;;;;;;14.60;8.10;;;12.00;99.90;;;;;;5065941;28;20423;-54
2021/09/23 06:09:54;;;;;;;14.13;7.78;;;13.30;99.90;;;;;;5068483;28;20421;-54
2021/09/23 06:12:20;;;;;;;15.07;7.60;;;14.30;99.90;;;;;;5063525;28;20401;-55
2021/09/23 06:14:46;;;;;;;14.20;7.75;;;15.40;99.90;;;;;;5063390;28;20404;-55
2021/09/23 06:17:13;;;;;;;13.77;7.47;;;16.40;99.90;;;;;;5065480;28;20396;-52
2021/09/23 06:19:38;;;;;;;15.20;8.20;;;17.50;99.90;;;;;;5065079;28;21258;-55
2021/09/23 06:22:04;;;;;;;12.40;6.90;;;18.70;99.90;;;;;;5069146;28;20404;-55
2021/09/23 06:24:30;;;;;;;12.20;7.40;;;19.60;99.90;;;;;;5064914;28;20753;-55
2021/09/23 06:26:55;;;;;;;13.40;8.00;;;20.10;99.90;;;;;;5059408;28;20382;-55
2021/09/23 06:29:21;;;;;;;12.97;7.23;;;20.30;99.90;;;;;;5063898;28;20894;-55
2021/09/23 06:31:47;;;;;;;15.90;8.30;;;21.30;99.90;;;;;;5058924;28;20474;-56
2021/09/23 06:34:13;;;;;;;18.30;10.52;;;22.10;99.30;;;;;;5056874;28;20389;-56
2021/09/23 06:36:39;;;;;;;13.90;11.35;;;22.20;98.30;;;;;;5068515;28;20384;-56
2021/09/23 06:39:05;;;;;;;16.95;11.98;;;22.40;97.40;;;;;;5072041;28;20795;-56
2021/09/23 06:41:31;;;;;;;16.07;12.83;;;21.10;96.60;;;;;;5066128;28;20404;-56
2021/09/23 06:44:00;;;;;;;14.45;12.73;;;22.50;95.30;;;;;;5069551;28;20414;-55
2021/09/23 06:46:27;;;;;;;17.80;14.43;;;22.20;96.10;;;;;;5067382;28;20392;-56
2021/09/23 06:48:53;;;;;;;19.45;14.07;;;22.00;96.40;;;;;;5066948;28;20398;-56
2021/09/23 06:51:19;;;;;;;16.65;13.35;;;21.60;96.20;;;;;;5063590;28;20471;-57
2021/09/23 06:53:45;;;;;;;15.57;12.03;;;21.10;97.00;;;;;;5063789;28;20401;-55
2021/09/23 06:56:11;;;;;;;24.33;12.25;;;21.10;98.10;;;;;;5079988;28;20407;-56
2021/09/23 06:58:36;;;;;;;19.92;11.80;;;21.50;97.20;;;;;;5079683;28;20387;-55
2021/09/23 07:01:02;;;;;;;18.00;13.70;;;22.40;96.70;;;;;;5073904;28;20954;-56
2021/09/23 07:03:28;;;;;;;17.47;13.57;;;22.70;95.30;;;;;;5072281;28;20390;-54
2021/09/23 07:05:53;;;;;;;19.23;15.57;;;23.60;94.00;;;;;;5071574;28;20470;-54
2021/09/23 07:08:20;;;;;;;18.10;15.40;;;23.60;93.30;;;;;;5067134;28;20433;-55
2021/09/23 07:10:47;;;;;;;19.77;15.90;;;23.40;92.70;;;;;;5069574;28;20396;-55
2021/09/23 07:13:12;;;;;;;18.27;15.50;;;24.00;91.80;;;;;;5069302;28;20899;-54
2021/09/23 07:15:41;;;;;;;17.23;15.40;;;24.30;90.80;;;;;;5063353;28;20384;-55
2021/09/23 07:18:06;;;;;;;17.90;15.48;;;24.00;89.90;;;;;;5066167;28;20380;-55
2021/09/23 07:20:32;;;;;;;18.77;16.23;;;23.90;89.70;;;;;;5064677;28;20414;-55
2021/09/23 07:22:58;;;;;;;17.70;15.90;;;24.10;89.80;;;;;;5069047;28;20383;-55
2021/09/23 07:25:24;;;;;;;17.40;15.60;;;24.10;90.00;;;;;;5069065;28;20537;-55
2021/09/23 07:27:54;;;;;;;17.23;15.52;;;24.50;89.30;;;;;;5067788;28;20408;-55
2021/09/23 07:30:22;;;;;;;18.63;16.57;;;24.40;88.80;;;;;;5070245;28;20384;-55
2021/09/23 07:32:48;;;;;;;17.50;15.60;;;24.00;89.70;;;;;;5062251;28;20441;-55
2021/09/23 07:35:14;;;;;;;17.52;15.70;;;24.30;90.10;;;;;;5071434;28;20402;-55
2021/09/23 07:37:40;;;;;;;20.52;15.60;;;24.50;88.80;;;;;;5068668;28;20388;-55
2021/09/23 07:40:08;;;;;;;17.08;12.98;;;23.70;90.50;;;;;;5069608;28;20718;-58
2021/09/23 07:42:34;;;;;;;17.60;15.13;;;24.50;89.30;;;;;;5065406;28;20468;-56
2021/09/23 07:45:01;;;;;;;17.23;15.45;;;24.70;88.50;;;;;;5069135;28;20497;-56
2021/09/23 07:47:26;;;;;;;16.20;14.15;;;24.80;88.40;;;;;;5064965;28;20855;-56
2021/09/23 07:49:52;;;;;;;17.25;15.02;;;24.70;87.50;;;;;;5071762;28;20390;-57
2021/09/23 07:52:18;;;;;;;22.52;16.90;;;25.50;86.30;;;;;;5075962;28;20856;-56
2021/09/23 07:54:44;;;;;;;13.45;7.75;;;26.80;83.50;;;;;;5070174;28;20536;-56
2021/09/23 07:57:11;;;;;;;13.93;9.40;;;28.40;74.70;;;;;;5070608;28;20482;-57
2021/09/23 07:59:37;;;;;;;16.17;7.30;;;27.60;74.30;;;;;;5069589;28;20589;-57
2021/09/23 08:02:03;;;;;;;14.75;7.47;;;27.10;73.50;;;;;;5063139;28;20832;-56
2021/09/23 08:04:29;;;;;;;10.98;6.82;;;26.70;72.60;;;;;;5055569;28;20388;-57
2021/09/23 08:06:55;;;;;;;15.60;12.20;;;26.50;73.80;;;;;;5058696;28;20761;-56
2021/09/23 08:09:20;;;;;;;16.20;12.07;;;26.10;75.60;;;;;;5055690;28;20739;-56
2021/09/23 08:11:46;;;;;;;13.70;12.30;;;26.60;74.50;;;;;;5070584;28;20474;-56
2021/09/23 08:14:13;;;;;;;15.52;13.57;;;26.50;72.50;;;;;;5070621;28;20384;-56
2021/09/23 08:16:38;;;;;;;13.15;11.75;;;26.50;73.10;;;;;;5069595;28;20422;-56
2021/09/23 08:19:04;;;;;;;13.27;11.97;;;26.60;72.90;;;;;;5070456;28;20494;-56
2021/09/23 08:21:30;;;;;;;18.03;10.10;;;26.70;71.60;;;;;;5069231;28;20465;-56
2021/09/23 08:23:56;;;;;;;11.87;10.30;;;27.00;71.00;;;;;;5070293;28;20446;-56
2021/09/23 08:26:23;;;;;;;10.50;6.70;;;27.10;72.10;;;;;;5069692;28;20399;-55
2021/09/23 08:28:50;;;;;;;13.10;9.80;;;27.60;70.40;;;;;;5069949;28;20395;-55
2021/09/23 08:31:17;;;;;;;13.40;11.32;;;27.50;67.40;;;;;;5056215;28;20428;-59
2021/09/23 08:33:43;;;;;;;13.90;11.35;;;27.40;66.90;;;;;;5060718;28;20403;-55
2021/09/23 08:36:09;;;;;;;11.80;10.57;;;27.90;65.30;;;;;;5069839;28;20430;-55
2021/09/23 08:38:35;;;;;;;13.13;9.48;;;28.90;63.70;;;;;;5067658;28;20892;-55
2021/09/23 08:41:00;;;;;;;11.75;9.25;;;29.00;61.60;;;;;;5068230;28;20520;-55
2021/09/23 08:43:26;;;;;;;11.57;9.18;;;28.60;62.10;;;;;;5069013;28;20760;-60
2021/09/23 08:45:54;;;;;;;14.75;10.60;;;28.90;61.20;;;;;;5069307;28;20437;-54
2021/09/23 08:48:20;;;;;;;11.38;9.45;;;28.10;60.30;;;;;;5069098;28;20384;-58
2021/09/23 08:50:46;;;;;;;14.75;10.15;;;28.00;62.60;;;;;;5068420;28;20390;-56
2021/09/23 08:53:12;;;;;;;16.55;10.90;;;27.90;60.60;;;;;;5069710;28;20748;-54
2021/09/23 08:55:37;;;;;;;13.88;9.10;;;27.70;61.70;;;;;;5062930;28;20650;-55
2021/09/23 08:58:06;;;;;;;14.00;9.05;;;28.90;60.30;;;;;;5069425;28;20396;-56
2021/09/23 09:00:37;;;;;;;11.30;8.20;;;28.70;60.10;;;;;;5068433;28;20392;-54
2021/09/23 09:03:08;;;;;;;11.18;8.73;;;29.00;59.20;;;;;;5069678;28;21157;-54
2021/09/23 09:05:35;;;;;;;11.38;9.88;;;28.50;59.10;;;;;;5068453;28;20427;-55
2021/09/23 09:08:01;;;;;;;10.82;9.57;;;28.70;58.40;;;;;;5064652;28;20395;-54
2021/09/23 09:10:27;;;;;;;15.20;9.52;;;28.20;59.20;;;;;;5065278;28;20403;-55
2021/09/23 09:12:53;;;;;;;10.82;9.73;;;28.00;58.90;;;;;;5065455;28;20840;-55
2021/09/23 09:15:38;;;;;;;8.98;4.68;;;29.00;57.90;;;;;;5063548;28;20391;-59
2021/09/23 09:18:22;;;;;;;10.23;4.47;;;29.60;57.20;;;;;;5066500;28;20405;-55
2021/09/23 09:21:02;;;;;;;9.02;4.90;;;30.10;58.10;;;;;;5067845;28;20778;-55
2021/09/23 09:23:48;;;;;;;8.15;4.22;;;29.60;57.20;;;;;;5068715;28;20380;-52
2021/09/23 09:26:32;;;;;;;10.50;4.50;;;30.00;55.70;;;;;;5072111;28;20769;-56
2021/09/23 09:29:01;;;;;;;9.30;4.23;;;29.90;56.30;;;;;;5080243;28;20390;-54
2021/09/23 09:31:27;;;;;;;9.95;4.40;;;30.30;54.80;;;;;;5061770;28;20402;-54
2021/09/23 09:33:59;;;;;;;7.30;3.90;;;31.60;53.90;;;;;;5059416;28;20397;-53
2021/09/23 09:36:30;;;;;;;8.53;3.90;;;31.50;51.30;;;;;;5061286;28;20401;-53
2021/09/23 09:39:05;;;;;;;10.95;3.40;;;31.10;52.40;;;;;;5062170;28;20378;-53
2021/09/23 09:41:34;;;;;;;10.80;8.93;;;31.10;52.30;;;;;;5069522;28;20483;-53
2021/09/23 09:44:03;;;;;;;12.60;7.40;;;29.90;52.50;;;;;;5062268;28;20736;-54
2021/09/23 09:46:34;;;;;;;11.10;8.05;;;29.60;53.60;;;;;;5063774;28;20400;-56
2021/09/23 09:49:01;;;;;;;9.30;7.22;;;31.10;54.70;;;;;;5056979;28;20927;-55
2021/09/23 09:51:42;;;;;;;23.02;8.90;;;29.20;54.80;;;;;;5061116;28;20460;-53
2021/09/23 09:54:10;;;;;;;8.07;6.70;;;30.20;54.10;;;;;;5047562;28;20408;-53
2021/09/23 09:56:38;;;;;;;6.85;3.55;;;31.00;52.20;;;;;;5065084;28;20440;-56
2021/09/23 09:59:18;;;;;;;6.63;2.97;;;30.80;51.40;;;;;;5053008;28;20374;-53
2021/09/23 10:01:47;;;;;;;7.47;4.97;;;31.00;50.60;;;;;;5046944;28;20413;-53
2021/09/23 10:04:14;;;;;;;8.57;4.93;;;30.80;50.60;;;;;;5062071;28;20385;-53
2021/09/23 10:06:42;;;;;;;7.97;5.25;;;31.00;50.30;;;;;;5051521;28;20439;-53
2021/09/23 10:09:10;;;;;;;8.13;4.90;;;31.20;50.40;;;;;;5048831;28;20468;-53
2021/09/23 10:11:38;;;;;;;7.85;5.03;;;31.10;50.10;;;;;;5048245;28;20440;-52
2021/09/23 10:14:04;;;;;;;32.35;5.70;;;30.20;50.70;;;;;;5048705;28;20439;-56
2021/09/23 10:16:31;;;;;;;9.35;6.55;;;29.70;50.90;;;;;;5048365;28;20468;-55
2021/09/23 10:18:58;;;;;;;9.00;5.55;;;29.00;51.90;;;;;;5047772;28;20381;-57
2021/09/23 10:21:25;;;;;;;10.88;5.22;;;28.80;51.90;;;;;;5048665;28;20408;-55
2021/09/23 10:23:52;;;;;;;11.90;5.43;;;28.30;52.80;;;;;;5054423;28;20858;-55
2021/09/23 10:26:19;;;;;;;8.90;5.50;;;28.10;54.10;;;;;;5063440;28;20922;-58
2021/09/23 10:28:47;;;;;;;21.80;5.28;;;28.20;52.80;;;;;;5064444;28;20434;-54
2021/09/23 10:31:20;;;;;;;12.20;5.80;;;28.60;52.60;;;;;;5061976;28;20422;-54
2021/09/23 10:33:48;;;;;;;13.50;5.70;;;29.60;51.40;;;;;;5066009;28;20387;-53
2021/09/23 10:36:15;;;;;;;10.13;4.90;;;30.30;50.40;;;;;;5053289;28;20401;-53
2021/09/23 10:38:42;;;;;;;8.70;4.20;;;30.90;49.10;;;;;;5058175;28;20381;-53
2021/09/23 10:41:10;;;;;;;9.40;4.53;;;31.40;48.70;;;;;;5052625;28;20409;-52
2021/09/23 10:43:36;;;;;;;6.38;4.97;;;30.40;48.80;;;;;;5052418;28;20378;-52
2021/09/23 10:46:03;;;;;;;6.95;3.90;;;30.00;49.30;;;;;;5053008;28;20385;-52
2021/09/23 10:48:36;;;;;;;7.30;4.10;;;30.00;50.00;;;;;;5056082;28;20550;-53
2021/09/23 10:51:03;;;;;;;5.80;3.60;;;30.00;49.80;;;;;;5053295;28;20385;-53
2021/09/23 10:53:33;;;;;;;8.23;4.50;;;30.30;49.20;;;;;;5056465;28;20381;-53
2021/09/23 10:56:02;;;;;;;7.82;5.15;;;30.80;48.70;;;;;;5061103;28;20734;-53
2021/09/23 10:58:29;;;;;;;7.53;4.82;;;30.90;48.40;;;;;;5068223;28;20403;-53
2021/09/23 11:00:58;;;;;;;8.90;5.32;;;30.90;48.20;;;;;;5066734;28;20404;-54
2021/09/23 11:03:37;;;;;;;8.75;4.90;;;30.80;48.30;;;;;;5066075;28;20456;-53
2021/09/23 11:06:11;;;;;;;8.32;4.90;;;30.50;48.40;;;;;;5062064;28;20408;-53
2021/09/23 11:08:42;;;;;;;8.77;5.18;;;30.20;48.50;;;;;;5070828;28;20423;-53
2021/09/23 11:11:09;;;;;;;8.10;5.35;;;30.20;49.10;;;;;;5069834;28;20824;-53
2021/09/23 11:13:39;;;;;;;6.35;3.80;;;29.90;48.80;;;;;;5062159;28;20425;-53
2021/09/23 11:16:10;;;;;;;6.43;4.32;;;30.10;48.60;;;;;;5051860;28;20397;-53
2021/09/23 11:18:38;;;;;;;6.75;4.00;;;30.00;49.30;;;;;;5051387;28;20375;-55
2021/09/23 11:21:05;;;;;;;7.32;4.18;;;29.60;49.00;;;;;;5052144;28;20409;-56
2021/09/23 11:23:33;;;;;;;7.10;4.97;;;28.40;50.20;;;;;;5051316;28;20432;-55
2021/09/23 11:26:00;;;;;;;6.45;4.80;;;27.80;51.20;;;;;;5065188;28;20370;-54
2021/09/23 11:28:27;;;;;;;6.88;4.80;;;27.50;52.60;;;;;;5049848;28;20394;-54
2021/09/23 11:30:53;;;;;;;6.60;5.05;;;27.30;52.70;;;;;;5054416;28;20384;-54
2021/09/23 11:33:23;;;;;;;7.40;5.60;;;27.20;52.10;;;;;;5067333;28;20398;-59
2021/09/23 11:35:50;;;;;;;11.60;5.50;;;26.80;51.90;;;;;;5067685;28;20387;-52
2021/09/23 11:38:19;;;;;;;6.90;5.30;;;26.60;52.00;;;;;;5066428;28;20455;-53
2021/09/23 11:40:46;;;;;;;7.65;5.55;;;26.40;52.70;;;;;;5062776;28;20485;-53
2021/09/23 11:43:15;;;;;;;6.80;5.20;;;26.40;52.50;;;;;;5060655;28;20747;-53
2021/09/23 11:45:43;;;;;;;7.53;5.00;;;26.40;53.50;;;;;;5060526;28;20926;-53
2021/09/23 11:48:18;;;;;;;7.93;5.20;;;26.40;53.80;;;;;;5055845;28;20388;-52
2021/09/23 11:50:44;;;;;;;7.25;5.20;;;26.40;53.00;;;;;;5064564;28;20867;-52
2021/09/23 11:53:12;;;;;;;6.97;5.60;;;26.60;53.70;;;;;;5066831;28;20393;-53
2021/09/23 11:55:42;;;;;;;8.48;5.60;;;26.70;52.90;;;;;;5063913;28;20422;-53
2021/09/23 11:58:15;;;;;;;9.82;5.88;;;26.90;54.00;;;;;;5065197;28;20456;-53
2021/09/23 12:00:49;;;;;;;8.15;4.95;;;26.60;56.40;;;;;;5066843;28;21136;-53
2021/09/23 12:03:17;;;;;;;8.53;5.50;;;26.50;57.60;;;;;;5065839;28;21112;-53
2021/09/23 12:05:44;;;;;;;7.70;5.78;;;26.40;57.30;;;;;;5052681;28;20830;-53
2021/09/23 12:08:18;;;;;;;7.45;5.07;;;26.60;56.70;;;;;;5066607;28;20765;-54
2021/09/23 12:10:48;;;;;;;8.70;5.20;;;26.40;56.50;;;;;;5064545;28;20388;-53
2021/09/23 12:13:26;;;;;;;7.65;5.10;;;26.10;57.90;;;;;;5066416;28;20384;-53
2021/09/23 12:15:54;;;;;;;7.00;4.93;;;25.90;58.00;;;;;;5065033;28;20391;-54
2021/09/23 12:18:22;;;;;;;7.05;4.55;;;25.90;58.10;;;;;;5063748;28;20744;-53
2021/09/23 12:20:50;;;;;;;10.52;5.35;;;26.00;57.50;;;;;;5056108;28;20411;-53
2021/09/23 12:23:25;;;;;;;7.60;4.80;;;26.00;57.60;;;;;;5049732;28;20386;-53
2021/09/23 12:26:11;;;;;;;7.30;5.22;;;26.10;57.70;;;;;;5062083;28;20879;-53
2021/09/23 12:28:46;;;;;;;8.70;5.40;;;26.40;58.00;;;;;;5058857;28;20487;-53
2021/09/23 12:31:13;;;;;;;8.80;5.88;;;26.40;57.40;;;;;;5065799;28;20384;-53
2021/09/23 12:33:56;;;;;;;7.18;4.82;;;26.70;57.60;;;;;;5065364;28;20376;-54
2021/09/23 12:36:34;;;;;;;9.23;6.30;;;26.90;57.00;;;;;;5064356;28;20391;-58
2021/09/23 12:39:17;;;;;;;8.65;5.30;;;27.10;56.40;;;;;;5064239;28;20391;-53
2021/09/23 12:42:04;;;;;;;6.57;4.70;;;27.00;56.40;;;;;;5063149;28;20500;-55